Overview Statistics Trail Chart Weather Telemetry Raw packets
 

This is the latest recevied weather packets stored in our database for station/object SV2RCS-13. If no packets are shown the sender has not sent any weather packets the latest 10 day(s).

<< 20 21 22 23 24 25 26 >>
Time Temp. Humidity Pressure Rain* Wind** Luminosity Snow
1788077138 36.67° C 19% 1012 hPa - - - -
1788076538 34.44° C 23% 1012.5 hPa - - - -
1788075938 34.44° C 25% 1012.7 hPa - - - -
1788075338 35° C 23% 1012.5 hPa - - - -
1788074738 33.89° C 25% 1012.8 hPa - - - -
1788074138 35.56° C 23% 1012.3 hPa - - - -
1788073538 32.78° C 27% 1013.2 hPa - - - -
1788072938 33.89° C 25% 1012.6 hPa - - - -
1788072337 35° C 25% 1012.4 hPa - - - -
1788071738 35° C 25% 1012.5 hPa - - - -
1788071138 33.33° C 28% 1013 hPa - - - -
1788070538 32.78° C 29% 1012.8 hPa - - - -
1788069939 33.89° C 27% 1012.8 hPa - - - -
1788069338 32.22° C 34% 1013.1 hPa - - - -
1788068738 31.11° C 36% 1013.4 hPa - - - -
1788068139 29.44° C 40% 1014.1 hPa - - - -
1788067538 28.89° C 43% 1014.1 hPa - - - -
1788066938 27.78° C 47% 1014.5 hPa - - - -
1788066337 26.11° C 53% 1015 hPa - - - -
1788065738 25° C 58% 1015.3 hPa - - - -
1788065138 23.89° C 62% 1015.5 hPa - - - -
1788064537 22.78° C 67% 1015.8 hPa - - - -
1788063938 22.78° C 65% 1015.9 hPa - - - -
1788063338 22.22° C 67% 1015.8 hPa - - - -
1788062738 22.22° C 66% 1015.9 hPa - - - -

* Rain since midnight (hover to see other rain measurements)
** Current wind speed in m/s (hover to see current wind gust speed)